sensor_id;sensor_type;location;lat;lon;timestamp;pressure;altitude;pressure_sealevel;temperature;humidity
44127;BME280;29786;50.798;7.302;2023-02-10T00:00:34;101090;;;2.34;100
44127;BME280;29786;50.798;7.302;2023-02-10T00:01:33;101090;;;2.46;100
44127;BME280;29786;50.798;7.302;2023-02-10T00:02:33;101080;;;2.4;100
44127;BME280;29786;50.798;7.302;2023-02-10T00:03:34;101080;;;2.38;100
44127;BME280;29786;50.798;7.302;2023-02-10T00:04:34;101080;;;2.51;100
44127;BME280;29786;50.798;7.302;2023-02-10T00:05:33;101090;;;2.45;100
44127;BME280;29786;50.798;7.302;2023-02-10T00:06:33;101090;;;2.5;100
44127;BME280;29786;50.798;7.302;2023-02-10T00:07:33;101090;;;2.62;100
44127;BME280;29786;50.798;7.302;2023-02-10T00:08:33;101090;;;2.65;100
44127;BME280;29786;50.798;7.302;2023-02-10T00:09:33;101090;;;2.52;100
44127;BME280;29786;50.798;7.302;2023-02-10T00:10:33;101090;;;2.55;100
44127;BME280;29786;50.798;7.302;2023-02-10T00:11:33;101090;;;2.55;100
44127;BME280;29786;50.798;7.302;2023-02-10T00:12:35;101100;;;2.51;100
44127;BME280;29786;50.798;7.302;2023-02-10T00:13:34;101090;;;2.48;100
44127;BME280;29786;50.798;7.302;2023-02-10T00:14:33;101100;;;2.33;100
44127;BME280;29786;50.798;7.302;2023-02-10T00:15:33;101100;;;2.29;100
44127;BME280;29786;50.798;7.302;2023-02-10T00:16:34;101100;;;2.32;100
44127;BME280;29786;50.798;7.302;2023-02-10T00:17:34;101100;;;2.34;100
44127;BME280;29786;50.798;7.302;2023-02-10T00:18:34;101100;;;2.36;100
44127;BME280;29786;50.798;7.302;2023-02-10T00:19:33;101100;;;2.35;100
44127;BME280;29786;50.798;7.302;2023-02-10T00:20:33;101100;;;2.41;100
44127;BME280;29786;50.798;7.302;2023-02-10T00:21:34;101100;;;2.48;100
44127;BME280;29786;50.798;7.302;2023-02-10T00:22:33;101100;;;2.49;100
44127;BME280;29786;50.798;7.302;2023-02-10T00:23:33;101100;;;2.6;100
44127;BME280;29786;50.798;7.302;2023-02-10T00:24:33;101110;;;2.72;100
44127;BME280;29786;50.798;7.302;2023-02-10T00:25:35;101100;;;2.69;100
44127;BME280;29786;50.798;7.302;2023-02-10T00:26:33;101100;;;2.67;100
44127;BME280;29786;50.798;7.302;2023-02-10T00:27:33;101110;;;2.63;100
44127;BME280;29786;50.798;7.302;2023-02-10T00:28:34;101100;;;2.64;100
44127;BME280;29786;50.798;7.302;2023-02-10T00:29:33;101100;;;2.66;100
44127;BME280;29786;50.798;7.302;2023-02-10T00:30:34;101100;;;2.64;100
44127;BME280;29786;50.798;7.302;2023-02-10T00:31:34;101110;;;2.53;100
44127;BME280;29786;50.798;7.302;2023-02-10T00:32:33;101110;;;2.51;100
44127;BME280;29786;50.798;7.302;2023-02-10T00:33:33;101110;;;2.54;100
44127;BME280;29786;50.798;7.302;2023-02-10T00:34:33;101110;;;2.49;100
44127;BME280;29786;50.798;7.302;2023-02-10T00:35:36;101110;;;2.44;100
44127;BME280;29786;50.798;7.302;2023-02-10T00:36:33;101110;;;2.52;100
44127;BME280;29786;50.798;7.302;2023-02-10T00:37:33;101110;;;2.54;100
44127;BME280;29786;50.798;7.302;2023-02-10T00:38:34;101100;;;2.65;100
44127;BME280;29786;50.798;7.302;2023-02-10T00:39:33;101100;;;2.66;100
44127;BME280;29786;50.798;7.302;2023-02-10T00:40:34;101110;;;2.7;100
44127;BME280;29786;50.798;7.302;2023-02-10T00:41:33;101100;;;2.66;100
44127;BME280;29786;50.798;7.302;2023-02-10T00:42:34;101100;;;2.62;100
44127;BME280;29786;50.798;7.302;2023-02-10T00:43:33;101110;;;2.68;100
44127;BME280;29786;50.798;7.302;2023-02-10T00:44:34;101110;;;2.71;100
44127;BME280;29786;50.798;7.302;2023-02-10T00:45:33;101110;;;2.67;100
44127;BME280;29786;50.798;7.302;2023-02-10T00:46:34;101110;;;2.6;100
44127;BME280;29786;50.798;7.302;2023-02-10T00:47:34;101110;;;2.57;100
44127;BME280;29786;50.798;7.302;2023-02-10T00:48:34;101120;;;2.6;100
44127;BME280;29786;50.798;7.302;2023-02-10T00:49:33;101120;;;2.55;100
44127;BME280;29786;50.798;7.302;2023-02-10T00:50:34;101120;;;2.59;100
44127;BME280;29786;50.798;7.302;2023-02-10T00:51:33;101120;;;2.57;100
44127;BME280;29786;50.798;7.302;2023-02-10T00:52:33;101120;;;2.69;100
44127;BME280;29786;50.798;7.302;2023-02-10T00:53:34;101120;;;2.73;100
44127;BME280;29786;50.798;7.302;2023-02-10T00:54:34;101120;;;2.75;100
44127;BME280;29786;50.798;7.302;2023-02-10T00:55:34;101120;;;2.8;100
44127;BME280;29786;50.798;7.302;2023-02-10T00:56:33;101120;;;2.89;100
44127;BME280;29786;50.798;7.302;2023-02-10T00:57:34;101120;;;2.86;100
44127;BME280;29786;50.798;7.302;2023-02-10T00:59:33;101120;;;2.76;100
44127;BME280;29786;50.798;7.302;2023-02-10T01:00:33;101120;;;2.85;100
44127;BME280;29786;50.798;7.302;2023-02-10T01:01:34;101120;;;2.83;100
44127;BME280;29786;50.798;7.302;2023-02-10T01:02:34;101130;;;2.8;100
44127;BME280;29786;50.798;7.302;2023-02-10T01:03:34;101120;;;2.83;100
44127;BME280;29786;50.798;7.302;2023-02-10T01:04:33;101120;;;2.76;100
44127;BME280;29786;50.798;7.302;2023-02-10T01:05:34;101120;;;2.73;100
44127;BME280;29786;50.798;7.302;2023-02-10T01:06:34;101120;;;2.7;100
44127;BME280;29786;50.798;7.302;2023-02-10T01:07:33;101130;;;2.63;100
44127;BME280;29786;50.798;7.302;2023-02-10T01:08:35;101130;;;2.6;100
44127;BME280;29786;50.798;7.302;2023-02-10T01:09:33;101120;;;2.6;100
44127;BME280;29786;50.798;7.302;2023-02-10T01:10:34;101120;;;2.56;100
44127;BME280;29786;50.798;7.302;2023-02-10T01:11:34;101120;;;2.4;100
44127;BME280;29786;50.798;7.302;2023-02-10T01:12:33;101120;;;2.43;100
44127;BME280;29786;50.798;7.302;2023-02-10T01:13:33;101130;;;2.44;100
44127;BME280;29786;50.798;7.302;2023-02-10T01:14:33;101130;;;2.49;100
44127;BME280;29786;50.798;7.302;2023-02-10T01:15:33;101130;;;2.5;100
44127;BME280;29786;50.798;7.302;2023-02-10T01:16:34;101130;;;2.5;100
44127;BME280;29786;50.798;7.302;2023-02-10T01:17:33;101130;;;2.54;100
44127;BME280;29786;50.798;7.302;2023-02-10T01:18:33;101120;;;2.54;100
44127;BME280;29786;50.798;7.302;2023-02-10T01:19:35;101120;;;2.51;100
44127;BME280;29786;50.798;7.302;2023-02-10T01:20:32;101120;;;2.46;100
44127;BME280;29786;50.798;7.302;2023-02-10T01:21:33;101130;;;2.36;100
44127;BME280;29786;50.798;7.302;2023-02-10T01:22:34;101120;;;2.4;100
44127;BME280;29786;50.798;7.302;2023-02-10T01:23:34;101120;;;2.39;100
44127;BME280;29786;50.798;7.302;2023-02-10T01:24:34;101130;;;2.41;100
44127;BME280;29786;50.798;7.302;2023-02-10T01:25:34;101130;;;2.45;100
44127;BME280;29786;50.798;7.302;2023-02-10T01:26:34;101130;;;2.39;100
44127;BME280;29786;50.798;7.302;2023-02-10T01:27:34;101140;;;2.41;100
44127;BME280;29786;50.798;7.302;2023-02-10T01:28:33;101140;;;2.47;100
44127;BME280;29786;50.798;7.302;2023-02-10T01:29:34;101140;;;2.5;100
44127;BME280;29786;50.798;7.302;2023-02-10T01:30:34;101140;;;2.55;100
44127;BME280;29786;50.798;7.302;2023-02-10T01:31:33;101150;;;2.55;100
44127;BME280;29786;50.798;7.302;2023-02-10T01:32:33;101150;;;2.5;100
44127;BME280;29786;50.798;7.302;2023-02-10T01:33:34;101150;;;2.52;100
44127;BME280;29786;50.798;7.302;2023-02-10T01:34:33;101150;;;2.5;100
44127;BME280;29786;50.798;7.302;2023-02-10T01:35:33;101150;;;2.5;100
44127;BME280;29786;50.798;7.302;2023-02-10T01:36:34;101150;;;2.49;100
44127;BME280;29786;50.798;7.302;2023-02-10T01:37:34;101140;;;2.39;100
44127;BME280;29786;50.798;7.302;2023-02-10T01:38:34;101140;;;2.36;100
44127;BME280;29786;50.798;7.302;2023-02-10T01:39:33;101140;;;2.46;100
44127;BME280;29786;50.798;7.302;2023-02-10T01:40:34;101140;;;2.52;100
44127;BME280;29786;50.798;7.302;2023-02-10T01:41:34;101150;;;2.5;100
44127;BME280;29786;50.798;7.302;2023-02-10T01:42:33;101140;;;2.43;100
44127;BME280;29786;50.798;7.302;2023-02-10T01:43:52;101140;;;2.47;100
44127;BME280;29786;50.798;7.302;2023-02-10T01:45:34;101140;;;2.41;100
44127;BME280;29786;50.798;7.302;2023-02-10T01:46:34;101150;;;2.49;100
44127;BME280;29786;50.798;7.302;2023-02-10T01:47:34;101140;;;2.41;100
44127;BME280;29786;50.798;7.302;2023-02-10T01:48:34;101140;;;2.41;100
44127;BME280;29786;50.798;7.302;2023-02-10T01:49:34;101150;;;2.46;100
44127;BME280;29786;50.798;7.302;2023-02-10T01:50:36;101150;;;2.53;100
44127;BME280;29786;50.798;7.302;2023-02-10T01:51:36;101150;;;2.55;100
44127;BME280;29786;50.798;7.302;2023-02-10T01:52:33;101150;;;2.49;100
44127;BME280;29786;50.798;7.302;2023-02-10T01:53:33;101140;;;2.35;100
44127;BME280;29786;50.798;7.302;2023-02-10T01:54:41;101140;;;2.38;100
44127;BME280;29786;50.798;7.302;2023-02-10T01:55:34;101140;;;2.34;100
44127;BME280;29786;50.798;7.302;2023-02-10T01:56:33;101140;;;2.31;100
44127;BME280;29786;50.798;7.302;2023-02-10T01:57:33;101140;;;2.38;100
44127;BME280;29786;50.798;7.302;2023-02-10T01:58:33;101150;;;2.43;100
44127;BME280;29786;50.798;7.302;2023-02-10T01:59:35;101150;;;2.51;100
44127;BME280;29786;50.798;7.302;2023-02-10T02:00:33;101150;;;2.38;100
44127;BME280;29786;50.798;7.302;2023-02-10T02:01:33;101140;;;2.34;100
44127;BME280;29786;50.798;7.302;2023-02-10T02:02:33;101140;;;2.42;100
44127;BME280;29786;50.798;7.302;2023-02-10T02:03:32;101140;;;2.34;100
44127;BME280;29786;50.798;7.302;2023-02-10T02:04:35;101140;;;2.51;100
44127;BME280;29786;50.798;7.302;2023-02-10T02:05:35;101140;;;2.4;100
44127;BME280;29786;50.798;7.302;2023-02-10T02:06:33;101140;;;2.49;100
44127;BME280;29786;50.798;7.302;2023-02-10T02:07:34;101140;;;2.42;100
44127;BME280;29786;50.798;7.302;2023-02-10T02:08:33;101140;;;2.42;100
44127;BME280;29786;50.798;7.302;2023-02-10T02:09:34;101140;;;2.46;100
44127;BME280;29786;50.798;7.302;2023-02-10T02:10:38;101140;;;2.5;100
44127;BME280;29786;50.798;7.302;2023-02-10T02:11:44;101150;;;2.46;100
44127;BME280;29786;50.798;7.302;2023-02-10T02:12:39;101150;;;2.38;100
44127;BME280;29786;50.798;7.302;2023-02-10T02:13:35;101140;;;2.42;100
44127;BME280;29786;50.798;7.302;2023-02-10T02:14:40;101150;;;2.4;100
44127;BME280;29786;50.798;7.302;2023-02-10T02:15:37;101150;;;2.41;100
44127;BME280;29786;50.798;7.302;2023-02-10T02:16:40;101150;;;2.45;100
44127;BME280;29786;50.798;7.302;2023-02-10T02:17:37;101150;;;2.59;100
44127;BME280;29786;50.798;7.302;2023-02-10T02:18:36;101150;;;2.5;100
44127;BME280;29786;50.798;7.302;2023-02-10T02:20:40;101150;;;2.51;100
44127;BME280;29786;50.798;7.302;2023-02-10T02:22:38;101150;;;2.42;100
44127;BME280;29786;50.798;7.302;2023-02-10T02:22:43;101150;;;2.44;100
44127;BME280;29786;50.798;7.302;2023-02-10T02:23:42;101150;;;2.39;100
44127;BME280;29786;50.798;7.302;2023-02-10T02:24:44;101150;;;2.48;100
44127;BME280;29786;50.798;7.302;2023-02-10T02:26:11;101150;;;2.45;100
44127;BME280;29786;50.798;7.302;2023-02-10T02:26:52;101150;;;2.55;100
44127;BME280;29786;50.798;7.302;2023-02-10T02:27:38;101150;;;2.54;100
44127;BME280;29786;50.798;7.302;2023-02-10T02:28:45;101150;;;2.55;100
44127;BME280;29786;50.798;7.302;2023-02-10T02:29:39;101150;;;2.61;100
44127;BME280;29786;50.798;7.302;2023-02-10T02:32:10;101150;;;2.6;100
44127;BME280;29786;50.798;7.302;2023-02-10T02:32:36;101150;;;2.65;100
44127;BME280;29786;50.798;7.302;2023-02-10T02:33:51;101160;;;2.65;100
44127;BME280;29786;50.798;7.302;2023-02-10T02:34:52;101160;;;2.58;100
44127;BME280;29786;50.798;7.302;2023-02-10T02:35:39;101150;;;2.5;100
44127;BME280;29786;50.798;7.302;2023-02-10T02:36:34;101160;;;2.51;100
44127;BME280;29786;50.798;7.302;2023-02-10T02:37:36;101150;;;2.47;100
44127;BME280;29786;50.798;7.302;2023-02-10T02:38:38;101150;;;2.48;100
44127;BME280;29786;50.798;7.302;2023-02-10T02:39:34;101150;;;2.45;100
44127;BME280;29786;50.798;7.302;2023-02-10T02:40:33;101150;;;2.4;100
44127;BME280;29786;50.798;7.302;2023-02-10T02:41:33;101150;;;2.41;100
44127;BME280;29786;50.798;7.302;2023-02-10T02:42:33;101150;;;2.4;100
44127;BME280;29786;50.798;7.302;2023-02-10T02:43:34;101150;;;2.35;100
44127;BME280;29786;50.798;7.302;2023-02-10T02:44:34;101150;;;2.34;100
44127;BME280;29786;50.798;7.302;2023-02-10T02:47:42;101150;;;2.2;100
44127;BME280;29786;50.798;7.302;2023-02-10T02:48:38;101150;;;2.18;100
44127;BME280;29786;50.798;7.302;2023-02-10T02:49:39;101150;;;2.2;100
44127;BME280;29786;50.798;7.302;2023-02-10T02:50:35;101150;;;2.25;100
44127;BME280;29786;50.798;7.302;2023-02-10T02:51:52;101160;;;2.21;100
44127;BME280;29786;50.798;7.302;2023-02-10T02:52:40;101150;;;2.22;100
44127;BME280;29786;50.798;7.302;2023-02-10T02:53:36;101160;;;2.24;100
44127;BME280;29786;50.798;7.302;2023-02-10T02:54:37;101160;;;2.28;100
44127;BME280;29786;50.798;7.302;2023-02-10T02:56:43;101160;;;2.22;100
44127;BME280;29786;50.798;7.302;2023-02-10T02:57:51;101160;;;2.18;100
44127;BME280;29786;50.798;7.302;2023-02-10T02:58:40;101160;;;2.22;100
44127;BME280;29786;50.798;7.302;2023-02-10T02:59:39;101160;;;2.2;100
44127;BME280;29786;50.798;7.302;2023-02-10T03:00:34;101160;;;2.26;100
44127;BME280;29786;50.798;7.302;2023-02-10T03:01:34;101160;;;2.35;100
44127;BME280;29786;50.798;7.302;2023-02-10T03:02:33;101160;;;2.34;100
44127;BME280;29786;50.798;7.302;2023-02-10T03:03:34;101160;;;2.38;100
44127;BME280;29786;50.798;7.302;2023-02-10T03:04:34;101170;;;2.35;100
44127;BME280;29786;50.798;7.302;2023-02-10T03:05:33;101170;;;2.31;100
44127;BME280;29786;50.798;7.302;2023-02-10T03:06:34;101170;;;2.31;100
44127;BME280;29786;50.798;7.302;2023-02-10T03:07:34;101170;;;2.4;100
44127;BME280;29786;50.798;7.302;2023-02-10T03:08:34;101170;;;2.43;100
44127;BME280;29786;50.798;7.302;2023-02-10T03:09:34;101170;;;2.4;100
44127;BME280;29786;50.798;7.302;2023-02-10T03:10:34;101170;;;2.42;100
44127;BME280;29786;50.798;7.302;2023-02-10T03:11:32;101170;;;2.39;100
44127;BME280;29786;50.798;7.302;2023-02-10T03:13:34;101170;;;2.39;100
44127;BME280;29786;50.798;7.302;2023-02-10T03:14:33;101170;;;2.52;100
44127;BME280;29786;50.798;7.302;2023-02-10T03:15:34;101170;;;2.61;100
44127;BME280;29786;50.798;7.302;2023-02-10T03:16:34;101180;;;2.59;100
44127;BME280;29786;50.798;7.302;2023-02-10T03:17:33;101180;;;2.55;100
44127;BME280;29786;50.798;7.302;2023-02-10T03:18:33;101170;;;2.54;100
44127;BME280;29786;50.798;7.302;2023-02-10T03:19:34;101170;;;2.52;100
44127;BME280;29786;50.798;7.302;2023-02-10T03:20:33;101170;;;2.53;100
44127;BME280;29786;50.798;7.302;2023-02-10T03:21:33;101180;;;2.48;100
44127;BME280;29786;50.798;7.302;2023-02-10T03:22:33;101180;;;2.38;100
44127;BME280;29786;50.798;7.302;2023-02-10T03:23:33;101180;;;2.4;100
44127;BME280;29786;50.798;7.302;2023-02-10T03:24:33;101180;;;2.44;100
44127;BME280;29786;50.798;7.302;2023-02-10T03:25:34;101180;;;2.47;100
44127;BME280;29786;50.798;7.302;2023-02-10T03:26:34;101180;;;2.33;100
44127;BME280;29786;50.798;7.302;2023-02-10T03:27:33;101170;;;2.31;100
44127;BME280;29786;50.798;7.302;2023-02-10T03:28:34;101180;;;2.32;100
44127;BME280;29786;50.798;7.302;2023-02-10T03:29:34;101170;;;2.27;100
44127;BME280;29786;50.798;7.302;2023-02-10T03:30:36;101180;;;2.29;100
44127;BME280;29786;50.798;7.302;2023-02-10T03:31:34;101180;;;2.28;100
44127;BME280;29786;50.798;7.302;2023-02-10T03:32:33;101180;;;2.3;100
44127;BME280;29786;50.798;7.302;2023-02-10T03:33:34;101180;;;2.36;100
44127;BME280;29786;50.798;7.302;2023-02-10T03:34:33;101180;;;2.45;100
44127;BME280;29786;50.798;7.302;2023-02-10T03:35:35;101180;;;2.41;100
44127;BME280;29786;50.798;7.302;2023-02-10T03:36:33;101180;;;2.4;100
44127;BME280;29786;50.798;7.302;2023-02-10T03:37:34;101180;;;2.4;100
44127;BME280;29786;50.798;7.302;2023-02-10T03:38:33;101180;;;2.4;100
44127;BME280;29786;50.798;7.302;2023-02-10T03:39:33;101180;;;2.42;100
44127;BME280;29786;50.798;7.302;2023-02-10T03:40:33;101180;;;2.43;100
44127;BME280;29786;50.798;7.302;2023-02-10T03:41:34;101190;;;2.49;100
44127;BME280;29786;50.798;7.302;2023-02-10T03:42:34;101180;;;2.49;100
44127;BME280;29786;50.798;7.302;2023-02-10T03:43:33;101190;;;2.48;100
44127;BME280;29786;50.798;7.302;2023-02-10T03:44:34;101190;;;2.48;100
44127;BME280;29786;50.798;7.302;2023-02-10T03:45:33;101180;;;2.46;100
44127;BME280;29786;50.798;7.302;2023-02-10T03:46:34;101180;;;2.46;100
44127;BME280;29786;50.798;7.302;2023-02-10T03:47:33;101180;;;2.48;100
44127;BME280;29786;50.798;7.302;2023-02-10T03:48:33;101190;;;2.52;100
44127;BME280;29786;50.798;7.302;2023-02-10T03:49:34;101190;;;2.61;100
44127;BME280;29786;50.798;7.302;2023-02-10T03:50:33;101180;;;2.56;100
44127;BME280;29786;50.798;7.302;2023-02-10T03:51:33;101180;;;2.54;100
44127;BME280;29786;50.798;7.302;2023-02-10T03:52:33;101190;;;2.54;100
44127;BME280;29786;50.798;7.302;2023-02-10T03:53:33;101190;;;2.57;100
44127;BME280;29786;50.798;7.302;2023-02-10T03:54:33;101190;;;2.52;100
44127;BME280;29786;50.798;7.302;2023-02-10T03:55:33;101180;;;2.57;100
44127;BME280;29786;50.798;7.302;2023-02-10T03:56:33;101180;;;2.56;100
44127;BME280;29786;50.798;7.302;2023-02-10T03:57:34;101180;;;2.58;100
44127;BME280;29786;50.798;7.302;2023-02-10T03:58:33;101180;;;2.48;100
44127;BME280;29786;50.798;7.302;2023-02-10T03:59:33;101190;;;2.47;100
44127;BME280;29786;50.798;7.302;2023-02-10T04:00:34;101180;;;2.48;100
44127;BME280;29786;50.798;7.302;2023-02-10T04:01:34;101180;;;2.49;100
44127;BME280;29786;50.798;7.302;2023-02-10T04:02:33;101180;;;2.53;100
44127;BME280;29786;50.798;7.302;2023-02-10T04:03:33;101180;;;2.57;100
44127;BME280;29786;50.798;7.302;2023-02-10T04:04:33;101180;;;2.67;100
44127;BME280;29786;50.798;7.302;2023-02-10T04:05:34;101180;;;2.73;100
44127;BME280;29786;50.798;7.302;2023-02-10T04:06:34;101180;;;2.84;100
44127;BME280;29786;50.798;7.302;2023-02-10T04:07:33;101180;;;2.9;100
44127;BME280;29786;50.798;7.302;2023-02-10T04:08:33;101180;;;2.92;100
44127;BME280;29786;50.798;7.302;2023-02-10T04:09:34;101170;;;2.95;100
44127;BME280;29786;50.798;7.302;2023-02-10T04:10:34;101180;;;2.93;100
44127;BME280;29786;50.798;7.302;2023-02-10T04:11:33;101180;;;2.88;100
44127;BME280;29786;50.798;7.302;2023-02-10T04:12:34;101180;;;2.81;100
44127;BME280;29786;50.798;7.302;2023-02-10T04:13:33;101180;;;2.76;100
44127;BME280;29786;50.798;7.302;2023-02-10T04:14:34;101180;;;2.74;100
44127;BME280;29786;50.798;7.302;2023-02-10T04:15:33;101180;;;2.66;100
44127;BME280;29786;50.798;7.302;2023-02-10T04:16:34;101180;;;2.57;100
44127;BME280;29786;50.798;7.302;2023-02-10T04:17:34;101180;;;2.5;100
44127;BME280;29786;50.798;7.302;2023-02-10T04:18:33;101170;;;2.42;100
44127;BME280;29786;50.798;7.302;2023-02-10T04:19:33;101180;;;2.33;100
44127;BME280;29786;50.798;7.302;2023-02-10T04:20:34;101170;;;2.29;100
44127;BME280;29786;50.798;7.302;2023-02-10T04:21:34;101170;;;2.33;100
44127;BME280;29786;50.798;7.302;2023-02-10T04:22:34;101170;;;2.26;100
44127;BME280;29786;50.798;7.302;2023-02-10T04:23:34;101170;;;2.23;100
44127;BME280;29786;50.798;7.302;2023-02-10T04:24:34;101170;;;2.11;100
44127;BME280;29786;50.798;7.302;2023-02-10T04:25:34;101160;;;2.05;100
44127;BME280;29786;50.798;7.302;2023-02-10T04:26:33;101160;;;1.93;100
44127;BME280;29786;50.798;7.302;2023-02-10T04:27:33;101170;;;1.86;100
44127;BME280;29786;50.798;7.302;2023-02-10T04:28:34;101160;;;1.8;100
44127;BME280;29786;50.798;7.302;2023-02-10T04:29:34;101160;;;1.72;100
44127;BME280;29786;50.798;7.302;2023-02-10T04:30:34;101160;;;1.62;100
44127;BME280;29786;50.798;7.302;2023-02-10T04:31:33;101170;;;1.67;100
44127;BME280;29786;50.798;7.302;2023-02-10T04:32:34;101170;;;1.58;100
44127;BME280;29786;50.798;7.302;2023-02-10T04:33:34;101160;;;1.51;100
44127;BME280;29786;50.798;7.302;2023-02-10T04:34:33;101160;;;1.44;100
44127;BME280;29786;50.798;7.302;2023-02-10T04:35:33;101160;;;1.4;100
44127;BME280;29786;50.798;7.302;2023-02-10T04:36:34;101160;;;1.45;100
44127;BME280;29786;50.798;7.302;2023-02-10T04:37:34;101150;;;1.43;100
44127;BME280;29786;50.798;7.302;2023-02-10T04:38:35;101150;;;1.42;100
44127;BME280;29786;50.798;7.302;2023-02-10T04:39:33;101150;;;1.39;100
44127;BME280;29786;50.798;7.302;2023-02-10T04:40:34;101150;;;1.37;100
44127;BME280;29786;50.798;7.302;2023-02-10T04:41:33;101160;;;1.37;100
44127;BME280;29786;50.798;7.302;2023-02-10T04:42:34;101160;;;1.28;100
44127;BME280;29786;50.798;7.302;2023-02-10T04:43:33;101160;;;1.34;100
44127;BME280;29786;50.798;7.302;2023-02-10T04:44:33;101160;;;1.32;100
44127;BME280;29786;50.798;7.302;2023-02-10T04:45:34;101160;;;1.34;100
44127;BME280;29786;50.798;7.302;2023-02-10T04:46:34;101150;;;1.33;100
44127;BME280;29786;50.798;7.302;2023-02-10T04:47:33;101150;;;1.35;100
44127;BME280;29786;50.798;7.302;2023-02-10T04:48:33;101160;;;1.31;100
44127;BME280;29786;50.798;7.302;2023-02-10T04:49:33;101160;;;1.25;100
44127;BME280;29786;50.798;7.302;2023-02-10T04:50:35;101150;;;1.21;100
44127;BME280;29786;50.798;7.302;2023-02-10T04:51:34;101160;;;1.14;100
44127;BME280;29786;50.798;7.302;2023-02-10T04:52:33;101160;;;1.19;100
44127;BME280;29786;50.798;7.302;2023-02-10T04:53:33;101160;;;1.23;100
44127;BME280;29786;50.798;7.302;2023-02-10T04:54:33;101160;;;1.19;100
44127;BME280;29786;50.798;7.302;2023-02-10T04:55:33;101160;;;1.19;100
44127;BME280;29786;50.798;7.302;2023-02-10T04:56:34;101170;;;1.19;100
44127;BME280;29786;50.798;7.302;2023-02-10T04:57:33;101170;;;1.29;100
44127;BME280;29786;50.798;7.302;2023-02-10T04:58:34;101170;;;1.35;100
44127;BME280;29786;50.798;7.302;2023-02-10T04:59:34;101180;;;1.25;100
44127;BME280;29786;50.798;7.302;2023-02-10T05:00:33;101180;;;1.29;100
44127;BME280;29786;50.798;7.302;2023-02-10T05:01:34;101180;;;1.3;100
44127;BME280;29786;50.798;7.302;2023-02-10T05:02:33;101180;;;1.37;100
44127;BME280;29786;50.798;7.302;2023-02-10T05:03:32;101180;;;1.42;100
44127;BME280;29786;50.798;7.302;2023-02-10T05:04:33;101180;;;1.45;100
44127;BME280;29786;50.798;7.302;2023-02-10T05:05:33;101170;;;1.53;100
44127;BME280;29786;50.798;7.302;2023-02-10T05:06:33;101170;;;1.72;100
44127;BME280;29786;50.798;7.302;2023-02-10T05:07:33;101170;;;1.8;100
44127;BME280;29786;50.798;7.302;2023-02-10T05:08:33;101170;;;1.85;100
44127;BME280;29786;50.798;7.302;2023-02-10T05:09:34;101170;;;1.93;100
44127;BME280;29786;50.798;7.302;2023-02-10T05:10:34;101170;;;2.03;100
44127;BME280;29786;50.798;7.302;2023-02-10T05:11:34;101170;;;2.1;100
44127;BME280;29786;50.798;7.302;2023-02-10T05:12:33;101180;;;2.17;100
44127;BME280;29786;50.798;7.302;2023-02-10T05:13:34;101170;;;2.26;100
44127;BME280;29786;50.798;7.302;2023-02-10T05:14:33;101170;;;2.33;100
44127;BME280;29786;50.798;7.302;2023-02-10T05:15:33;101180;;;2.41;100
44127;BME280;29786;50.798;7.302;2023-02-10T05:16:34;101180;;;2.48;100
44127;BME280;29786;50.798;7.302;2023-02-10T05:17:34;101170;;;2.45;100
44127;BME280;29786;50.798;7.302;2023-02-10T05:18:34;101180;;;2.44;100
44127;BME280;29786;50.798;7.302;2023-02-10T05:19:34;101180;;;2.46;100
44127;BME280;29786;50.798;7.302;2023-02-10T05:20:33;101180;;;2.56;100
44127;BME280;29786;50.798;7.302;2023-02-10T05:21:33;101180;;;2.58;100
44127;BME280;29786;50.798;7.302;2023-02-10T05:22:35;101180;;;2.59;100
44127;BME280;29786;50.798;7.302;2023-02-10T05:23:33;101180;;;2.58;100
44127;BME280;29786;50.798;7.302;2023-02-10T05:24:33;101180;;;2.62;100
44127;BME280;29786;50.798;7.302;2023-02-10T05:25:33;101190;;;2.69;100
44127;BME280;29786;50.798;7.302;2023-02-10T05:26:33;101190;;;2.69;100
44127;BME280;29786;50.798;7.302;2023-02-10T05:28:33;101190;;;2.66;100
44127;BME280;29786;50.798;7.302;2023-02-10T05:29:34;101190;;;2.64;100
44127;BME280;29786;50.798;7.302;2023-02-10T05:30:33;101190;;;2.61;100
44127;BME280;29786;50.798;7.302;2023-02-10T05:31:33;101200;;;2.67;100
44127;BME280;29786;50.798;7.302;2023-02-10T05:32:34;101200;;;2.73;100
44127;BME280;29786;50.798;7.302;2023-02-10T05:33:34;101200;;;2.76;100
44127;BME280;29786;50.798;7.302;2023-02-10T05:34:33;101190;;;2.79;100
44127;BME280;29786;50.798;7.302;2023-02-10T05:35:33;101190;;;2.79;100
44127;BME280;29786;50.798;7.302;2023-02-10T05:36:33;101200;;;2.83;100
44127;BME280;29786;50.798;7.302;2023-02-10T05:37:34;101190;;;2.87;100
44127;BME280;29786;50.798;7.302;2023-02-10T05:38:34;101190;;;2.96;100
44127;BME280;29786;50.798;7.302;2023-02-10T05:39:33;101200;;;2.84;100
44127;BME280;29786;50.798;7.302;2023-02-10T05:40:34;101200;;;2.85;100
44127;BME280;29786;50.798;7.302;2023-02-10T05:41:33;101200;;;2.86;100
44127;BME280;29786;50.798;7.302;2023-02-10T05:42:34;101200;;;2.87;100
44127;BME280;29786;50.798;7.302;2023-02-10T05:43:34;101200;;;2.85;100
44127;BME280;29786;50.798;7.302;2023-02-10T05:44:33;101200;;;2.93;100
44127;BME280;29786;50.798;7.302;2023-02-10T05:45:34;101200;;;2.84;100
44127;BME280;29786;50.798;7.302;2023-02-10T05:46:34;101190;;;2.84;100
44127;BME280;29786;50.798;7.302;2023-02-10T05:47:33;101190;;;2.82;100
44127;BME280;29786;50.798;7.302;2023-02-10T05:48:34;101190;;;2.81;100
44127;BME280;29786;50.798;7.302;2023-02-10T05:49:32;101190;;;2.77;100